Time;durP1;ratioP1;P1;durP2;ratioP2;P2;SDS_P1;SDS_P2;PMS_P1;PMS_P2;Temp;Humidity;BMP_temperature;BMP_pressure;BME280_temperature;BME280_humidity;BME280_pressure;Samples;Min_cycle;Max_cycle;Signal;HPM_P1;HPM_P2
2022/07/09 00:00:20;;;;;;;5.43;3.90;;;;;16.30;102371.00;;;;10429813;28;20233;-77
2022/07/09 00:05:22;;;;;;;4.87;4.03;;;;;16.30;102368.00;;;;10427182;28;20665;-77
2022/07/09 00:10:24;;;;;;;7.93;4.10;;;;;16.30;102365.00;;;;10413851;28;20256;-77
2022/07/09 00:15:26;;;;;;;13.30;4.43;;;;;16.20;102361.00;;;;10412527;28;20195;-77
2022/07/09 00:20:28;;;;;;;6.00;5.20;;;;;16.20;102353.00;;;;10445725;28;20708;-77
2022/07/09 00:25:30;;;;;;;10.20;4.80;;;;;16.20;102350.00;;;;10429309;28;20190;-77
2022/07/09 00:30:32;;;;;;;5.70;4.63;;;;;16.20;102354.00;;;;10444699;28;20198;-77
2022/07/09 00:35:34;;;;;;;5.10;4.07;;;;;16.10;102356.00;;;;10444656;28;20198;-77
2022/07/09 00:40:36;;;;;;;5.70;3.43;;;;;16.00;102355.00;;;;10461868;28;20236;-77
2022/07/09 00:45:38;;;;;;;7.43;3.63;;;;;15.90;102352.00;;;;10444897;28;20187;-79
2022/07/09 00:50:42;;;;;;;3.50;3.20;;;;;15.90;102353.00;;;;10443073;28;20289;-79
2022/07/09 00:55:47;;;;;;;5.33;3.30;;;;;15.80;102350.00;;;;10481396;28;20197;-79
2022/07/09 01:00:49;;;;;;;4.10;3.33;;;;;15.70;102348.00;;;;10434198;28;20208;-79
2022/07/09 01:05:51;;;;;;;7.20;3.90;;;;;15.70;102356.00;;;;10409504;28;20619;-79
2022/07/09 01:10:54;;;;;;;4.97;3.47;;;;;15.60;102357.00;;;;10425722;28;20236;-79
2022/07/09 01:15:56;;;;;;;5.03;4.10;;;;;15.50;102364.00;;;;10442302;28;20198;-79
2022/07/09 01:20:58;;;;;;;5.80;4.00;;;;;15.50;102364.00;;;;10441739;28;20194;-79
2022/07/09 01:26:00;;;;;;;8.33;4.50;;;;;15.40;102352.00;;;;10425443;28;20198;-78
2022/07/09 01:31:02;;;;;;;6.03;4.00;;;;;15.30;102353.00;;;;10427625;28;20698;-79
2022/07/09 01:36:05;;;;;;;5.00;3.70;;;;;15.40;102346.00;;;;10466221;28;20192;-79
2022/07/09 01:41:07;;;;;;;7.97;4.20;;;;;15.30;102343.00;;;;10449608;28;20177;-79
2022/07/09 01:46:09;;;;;;;9.73;4.03;;;;;15.30;102345.00;;;;10449220;28;20277;-79
2022/07/09 01:51:15;;;;;;;6.00;4.40;;;;;15.20;102346.00;;;;10465569;28;20205;-79
2022/07/09 01:56:17;;;;;;;5.40;4.67;;;;;15.10;102345.00;;;;10482360;28;20192;-79
2022/07/09 02:01:20;;;;;;;5.93;4.10;;;;;15.00;102338.00;;;;10461684;28;20688;-79
2022/07/09 02:06:22;;;;;;;4.30;3.67;;;;;14.90;102335.00;;;;10439837;28;20240;-79
2022/07/09 02:11:24;;;;;;;4.83;3.60;;;;;14.80;102329.00;;;;10481566;28;20209;-78
2022/07/09 02:16:26;;;;;;;5.27;4.30;;;;;14.80;102334.00;;;;10497354;28;20692;-79
2022/07/09 02:21:28;;;;;;;8.67;5.73;;;;;14.80;102327.00;;;;10463953;28;20228;-79
2022/07/09 02:26:30;;;;;;;10.13;5.67;;;;;14.80;102322.00;;;;10480704;28;20268;-79
2022/07/09 02:31:32;;;;;;;8.53;5.53;;;;;14.70;102328.00;;;;10447332;28;20225;-79
2022/07/09 02:36:34;;;;;;;8.90;5.90;;;;;14.70;102323.00;;;;10463784;28;20202;-79
2022/07/09 02:41:36;;;;;;;13.83;10.23;;;;;14.70;102318.00;;;;10479754;28;20261;-79
2022/07/09 02:46:38;;;;;;;19.03;12.57;;;;;14.70;102318.00;;;;10462850;28;20204;-78
2022/07/09 02:51:40;;;;;;;18.80;14.63;;;;;14.80;102323.00;;;;10463056;28;20216;-79
2022/07/09 02:56:43;;;;;;;23.57;16.20;;;;;15.00;102321.00;;;;10444705;28;20217;-79
2022/07/09 03:01:46;;;;;;;18.63;16.67;;;;;15.20;102317.00;;;;10405156;28;20219;-79
2022/07/09 03:06:48;;;;;;;17.10;14.00;;;;;15.50;102315.00;;;;10421505;28;20316;-79
2022/07/09 03:11:50;;;;;;;15.00;13.40;;;;;15.60;102322.00;;;;10405082;28;20317;-79
2022/07/09 03:16:52;;;;;;;18.60;14.20;;;;;15.70;102318.00;;;;10421156;28;20225;-79
2022/07/09 03:21:54;;;;;;;19.23;16.90;;;;;15.80;102316.00;;;;10420867;28;20192;-79
2022/07/09 03:26:57;;;;;;;23.50;18.23;;;;;15.90;102308.00;;;;10388784;28;20198;-79
2022/07/09 03:31:59;;;;;;;27.53;20.87;;;;;15.90;102312.00;;;;10403325;28;20222;-79
2022/07/09 03:37:01;;;;;;;29.67;20.50;;;;;16.00;102316.00;;;;10437333;28;20194;-78
2022/07/09 03:42:05;;;;;;;31.90;25.00;;;;;16.00;102315.00;;;;10453013;28;20187;-79
2022/07/09 03:47:07;;;;;;;35.37;25.47;;;;;16.00;102320.00;;;;10436733;28;20213;-79
2022/07/09 03:52:09;;;;;;;28.43;22.63;;;;;16.00;102319.00;;;;10420298;28;20237;-79
2022/07/09 03:57:20;;;;;;;32.10;23.00;;;;;16.00;102314.00;;;;10453392;28;20189;-77
2022/07/09 04:02:22;;;;;;;31.63;24.17;;;;;16.10;102307.00;;;;10454379;28;20210;-79
2022/07/09 04:07:26;;;;;;;44.33;25.97;;;;;16.30;102319.00;;;;10436427;28;20200;-79
2022/07/09 04:12:28;;;;;;;29.17;23.87;;;;;16.50;102318.00;;;;10452817;28;20232;-79
2022/07/09 04:17:30;;;;;;;32.13;23.80;;;;;16.70;102303.00;;;;10408386;28;20602;-79
2022/07/09 04:22:32;;;;;;;31.00;25.60;;;;;16.90;102308.00;;;;10460635;28;20174;-79
2022/07/09 04:27:38;;;;;;;27.93;23.67;;;;;17.10;102306.00;;;;10427368;28;20193;-77
2022/07/09 04:32:40;;;;;;;26.00;22.50;;;;;17.20;102299.00;;;;10460812;28;20236;-78
2022/07/09 04:37:43;;;;;;;27.52;19.13;;;;;17.20;102305.00;;;;10419578;28;20673;-78
2022/07/09 04:42:44;;;;;;;21.30;19.07;;;;;17.30;102301.00;;;;10408135;28;20666;-78
2022/07/09 04:47:46;;;;;;;23.98;18.85;;;;;17.30;102300.00;;;;10443507;28;20202;-78
2022/07/09 04:52:48;;;;;;;21.17;16.87;;;;;17.40;102303.00;;;;10413863;28;20205;-78
2022/07/09 04:57:50;;;;;;;21.30;15.65;;;;;17.50;102311.00;;;;10468239;28;20281;-78
2022/07/09 05:02:52;;;;;;;18.93;13.70;;;;;17.80;102304.00;;;;10451435;28;20248;-78
2022/07/09 05:07:54;;;;;;;20.33;13.88;;;;;18.10;102294.00;;;;10442444;28;20205;-78
2022/07/09 05:12:56;;;;;;;18.50;14.32;;;;;18.50;102301.00;;;;10426304;28;20692;-78
2022/07/09 05:17:59;;;;;;;21.58;16.15;;;;;19.00;102298.00;;;;10409869;28;20645;-79
2022/07/09 05:23:00;;;;;;;19.42;15.18;;;;;19.70;102301.00;;;;10409063;28;20191;-78
2022/07/09 05:28:03;;;;;;;23.50;14.32;;;;;19.50;102293.00;;;;10408930;28;20588;-78
2022/07/09 05:33:06;;;;;;;16.02;13.57;;;;;19.60;102280.00;;;;10461620;28;20300;-78
2022/07/09 05:38:08;;;;;;;13.27;11.38;;;;;20.00;102287.00;;;;10483373;28;20264;-78
2022/07/09 05:43:10;;;;;;;13.05;10.60;;;;;20.50;102280.00;;;;10465764;28;20197;-79
2022/07/09 05:48:12;;;;;;;17.05;10.48;;;;;21.40;102273.00;;;;10465691;28;20707;-78
2022/07/09 05:53:14;;;;;;;13.27;7.78;;;;;22.10;102269.00;;;;10440876;28;20260;-79
2022/07/09 05:58:16;;;;;;;11.65;7.65;;;;;22.50;102276.00;;;;10440636;28;20616;-78
2022/07/09 06:03:18;;;;;;;9.68;7.18;;;;;23.10;102273.00;;;;10407793;28;20285;-79
2022/07/09 06:08:20;;;;;;;16.92;6.43;;;;;23.00;102274.00;;;;10407663;28;20736;-79
2022/07/09 06:13:22;;;;;;;9.13;6.13;;;;;23.50;102273.00;;;;10391674;28;20550;-79
2022/07/09 06:18:24;;;;;;;9.18;5.28;;;;;24.00;102272.00;;;;10424041;28;20194;-79
2022/07/09 06:23:26;;;;;;;10.55;5.63;;;;;24.20;102272.00;;;;10423649;28;20190;-79
2022/07/09 06:28:28;;;;;;;7.10;3.97;;;;;24.60;102262.00;;;;10423534;28;20194;-79
2022/07/09 06:33:30;;;;;;;6.00;3.97;;;;;23.70;102261.00;;;;10406830;28;20237;-79
2022/07/09 06:38:32;;;;;;;8.02;3.75;;;;;24.30;102268.00;;;;10423590;28;20191;-79
2022/07/09 06:43:35;;;;;;;8.93;4.32;;;;;23.60;102267.00;;;;10406635;28;20186;-79
2022/07/09 06:48:37;;;;;;;8.70;3.92;;;;;23.10;102253.00;;;;10422471;28;20265;-79
2022/07/09 06:53:39;;;;;;;9.07;4.45;;;;;23.40;102258.00;;;;10417141;28;20563;-79
2022/07/09 06:58:41;;;;;;;8.60;3.38;;;;;24.40;102263.00;;;;10479965;28;20684;-78
2022/07/09 07:03:43;;;;;;;9.68;4.07;;;;;24.80;102277.00;;;;10422446;28;20248;-78
2022/07/09 07:08:45;;;;;;;7.20;4.70;;;;;24.50;102275.00;;;;10405731;28;20244;-79
2022/07/09 07:13:47;;;;;;;7.68;4.65;;;;;24.60;102271.00;;;;10437939;28;20210;-78
2022/07/09 07:18:49;;;;;;;7.55;4.57;;;;;24.80;102266.00;;;;10437845;28;20256;-78
2022/07/09 07:23:51;;;;;;;6.20;4.10;;;;;25.00;102270.00;;;;10437760;28;20310;-79
2022/07/09 07:28:54;;;;;;;6.70;3.17;;;;;26.60;102289.00;;;;10405087;28;20206;-79
2022/07/09 07:33:56;;;;;;;5.65;2.90;;;;;26.50;102277.00;;;;10478763;28;20268;-79
2022/07/09 07:38:58;;;;;;;6.68;3.50;;;;;25.60;102277.00;;;;10462428;28;20192;-78
2022/07/09 07:44:00;;;;;;;5.65;3.85;;;;;24.80;102272.00;;;;10461828;28;20173;-79
2022/07/09 07:49:02;;;;;;;10.23;4.22;;;;;25.30;102277.00;;;;10461835;28;20194;-78
2022/07/09 07:54:03;;;;;;;8.68;5.90;;;;;25.90;102275.00;;;;10445407;28;20201;-79
2022/07/09 07:59:05;;;;;;;10.52;5.85;;;;;26.10;102269.00;;;;10445513;28;20296;-79
2022/07/09 08:04:08;;;;;;;6.38;4.88;;;;;26.40;102274.00;;;;10445509;28;20668;-79
2022/07/09 08:09:10;;;;;;;6.82;5.47;;;;;26.70;102274.00;;;;10446228;28;20217;-79
2022/07/09 08:14:12;;;;;;;6.68;5.60;;;;;27.30;102267.00;;;;10445248;28;20220;-79
2022/07/09 08:19:15;;;;;;;7.45;5.85;;;;;27.60;102256.00;;;;10469450;28;20201;-79
2022/07/09 08:24:18;;;;;;;7.40;6.40;;;;;28.10;102258.00;;;;10470436;28;20649;-79
2022/07/09 08:29:20;;;;;;;8.70;6.28;;;;;27.20;102263.00;;;;10453630;28;20268;-79
2022/07/09 08:34:22;;;;;;;11.57;6.85;;;;;26.60;102272.00;;;;10439071;28;20206;-79
2022/07/09 08:39:24;;;;;;;9.82;7.65;;;;;26.90;102265.00;;;;10428125;28;20190;-78
2022/07/09 08:44:29;;;;;;;8.65;7.55;;;;;26.40;102261.00;;;;10444189;28;20194;-78
2022/07/09 08:49:31;;;;;;;12.68;7.60;;;;;26.70;102265.00;;;;10427365;28;20178;-78
2022/07/09 08:54:37;;;;;;;11.43;8.05;;;;;25.20;102255.00;;;;10429746;28;20209;-78
2022/07/09 08:59:39;;;;;;;14.23;8.85;;;;;26.30;102235.00;;;;10468175;28;20289;-78
2022/07/09 09:04:41;;;;;;;12.27;9.25;;;;;27.70;102241.00;;;;10449199;28;20672;-78
2022/07/09 09:09:44;;;;;;;12.95;11.45;;;;;27.60;102242.00;;;;10451183;28;20251;-78
2022/07/09 09:14:52;;;;;;;12.10;9.88;;;;;28.40;102227.00;;;;10450557;28;20197;-78
2022/07/09 09:19:54;;;;;;;10.52;9.52;;;;;28.70;102228.00;;;;10450694;28;20243;-78
2022/07/09 09:24:56;;;;;;;11.95;8.18;;;;;29.00;102242.00;;;;10450886;28;20197;-78
2022/07/09 09:29:59;;;;;;;9.25;7.40;;;;;29.80;102218.00;;;;10466536;28;20232;-78
2022/07/09 09:35:05;;;;;;;10.70;7.65;;;;;30.00;102222.00;;;;10461562;28;20193;-78
2022/07/09 09:40:10;;;;;;;11.15;8.98;;;;;30.80;102227.00;;;;10467194;28;20247;-78
2022/07/09 09:45:16;;;;;;;11.23;9.05;;;;;31.80;102219.00;;;;10483014;28;20637;-78
2022/07/09 09:50:20;;;;;;;10.13;9.05;;;;;31.20;102222.00;;;;10433340;28;20300;-78
2022/07/09 09:55:23;;;;;;;12.70;11.40;;;;;31.00;102214.00;;;;10466187;28;20193;-78
2022/07/09 10:00:25;;;;;;;13.68;12.27;;;;;29.80;102217.00;;;;10465444;28;20206;-77
2022/07/09 10:05:27;;;;;;;14.48;12.38;;;;;29.10;102208.00;;;;10448967;28;20721;-78
2022/07/09 10:10:29;;;;;;;17.25;15.43;;;;;27.90;102220.00;;;;10481591;28;20305;-78
2022/07/09 10:15:33;;;;;;;16.63;15.02;;;;;27.00;102225.00;;;;10448561;28;20713;-78
2022/07/09 10:20:36;;;;;;;18.13;15.85;;;;;27.70;102210.00;;;;10464967;28;20194;-77
2022/07/09 10:25:47;;;;;;;17.70;15.80;;;;;28.60;102210.00;;;;10448178;28;20264;-77
2022/07/09 10:30:49;;;;;;;12.00;10.77;;;;;29.90;102217.00;;;;10464228;28;20282;-77
2022/07/09 10:35:53;;;;;;;13.00;11.38;;;;;30.00;102212.00;;;;10447684;28;20198;-77
2022/07/09 10:40:59;;;;;;;16.90;15.10;;;;;28.40;102222.00;;;;10463682;28;20181;-78
2022/07/09 10:46:09;;;;;;;13.85;12.50;;;;;28.60;102215.00;;;;10463170;28;20220;-77
2022/07/09 10:51:19;;;;;;;14.10;12.80;;;;;29.10;102209.00;;;;10463270;28;20208;-78
2022/07/09 10:56:22;;;;;;;9.10;8.23;;;;;29.40;102225.00;;;;10446738;28;20651;-77
2022/07/09 11:01:27;;;;;;;9.02;8.10;;;;;29.20;102208.00;;;;10441060;28;20218;-77
2022/07/09 11:06:29;;;;;;;5.93;3.72;;;;;29.30;102229.00;;;;10421604;28;20194;-77
2022/07/09 11:11:31;;;;;;;6.88;3.80;;;;;27.90;102227.00;;;;10388589;28;20229;-78
2022/07/09 11:16:33;;;;;;;6.50;3.58;;;;;27.70;102215.00;;;;10404506;28;20206;-77
2022/07/09 11:21:35;;;;;;;3.00;2.75;;;;;27.00;102234.00;;;;10404686;28;20186;-78
2022/07/09 11:26:37;;;;;;;2.85;1.50;;;;;27.20;102242.00;;;;10420987;28;20191;-77
2022/07/09 11:31:52;;;;;;;3.00;1.85;;;;;27.80;102229.00;;;;10428424;28;20217;-77
2022/07/09 11:36:56;;;;;;;2.88;2.13;;;;;27.30;102251.00;;;;10461724;28;20208;-77
2022/07/09 11:41:59;;;;;;;4.93;1.58;;;;;28.50;102210.00;;;;10478889;28;20222;-77
2022/07/09 11:47:11;;;;;;;2.00;1.40;;;;;28.50;102222.00;;;;10494851;28;20315;-77
2022/07/09 11:52:21;;;;;;;2.72;1.10;;;;;28.70;102228.00;;;;10477525;28;20232;-78
2022/07/09 11:57:24;;;;;;;2.17;1.20;;;;;28.00;102235.00;;;;10461575;28;20189;-77
2022/07/09 12:02:39;;;;;;;2.85;1.40;;;;;29.50;102215.00;;;;10465515;28;20222;-77
2022/07/09 12:07:50;;;;;;;1.30;0.90;;;;;28.30;102236.00;;;;10436876;28;20196;-77
2022/07/09 12:12:52;;;;;;;1.65;1.00;;;;;29.00;102230.00;;;;10424847;28;20214;-77
2022/07/09 12:17:56;;;;;;;1.42;1.33;;;;;28.20;102228.00;;;;10461655;28;20228;-78
2022/07/09 12:22:59;;;;;;;2.60;1.00;;;;;28.40;102234.00;;;;10435848;28;20196;-77
2022/07/09 12:28:01;;;;;;;1.48;0.90;;;;;29.10;102230.00;;;;10434847;28;20691;-77
2022/07/09 12:33:03;;;;;;;1.80;1.02;;;;;28.40;102243.00;;;;10453652;28;20541;-77
2022/07/09 12:38:05;;;;;;;1.90;0.90;;;;;26.50;102230.00;;;;10460733;28;20733;-77
2022/07/09 12:43:07;;;;;;;1.10;1.00;;;;;27.40;102228.00;;;;10448561;28;20218;-77
2022/07/09 12:48:09;;;;;;;1.33;0.80;;;;;26.80;102238.00;;;;10469190;28;20194;-77
2022/07/09 12:53:11;;;;;;;4.07;0.70;;;;;27.70;102220.00;;;;10476301;28;20240;-78
2022/07/09 12:58:13;;;;;;;2.95;1.13;;;;;27.40;102230.00;;;;10443110;28;20240;-78
2022/07/09 13:03:14;;;;;;;4.05;0.95;;;;;27.60;102250.00;;;;10444115;28;20194;-78
2022/07/09 13:08:16;;;;;;;2.25;0.85;;;;;27.90;102219.00;;;;10434811;28;20231;-77
2022/07/09 13:13:22;;;;;;;1.75;0.80;;;;;27.60;102236.00;;;;10468507;28;20213;-78
2022/07/09 13:18:24;;;;;;;1.98;1.05;;;;;28.30;102207.00;;;;10425216;28;20205;-78
2022/07/09 13:23:27;;;;;;;1.63;0.80;;;;;29.00;102221.00;;;;10467226;28;20185;-78
2022/07/09 13:28:30;;;;;;;0.85;0.85;;;;;28.00;102234.00;;;;10471207;28;20251;-78
2022/07/09 13:33:33;;;;;;;1.33;1.13;;;;;27.40;102234.00;;;;10462127;28;20197;-78
2022/07/09 13:38:35;;;;;;;1.73;1.10;;;;;28.00;102211.00;;;;10479996;28;20186;-78
2022/07/09 13:43:38;;;;;;;2.67;1.05;;;;;26.30;102248.00;;;;10446773;28;20650;-78
2022/07/09 13:48:46;;;;;;;2.25;0.90;;;;;25.90;102222.00;;;;10438470;28;20242;-77
2022/07/09 13:53:48;;;;;;;1.90;1.48;;;;;27.40;102227.00;;;;10441366;28;20245;-78
2022/07/09 13:58:50;;;;;;;1.08;0.85;;;;;27.50;102217.00;;;;10460478;28;20232;-78
2022/07/09 14:03:52;;;;;;;1.90;0.98;;;;;28.10;102235.00;;;;10433739;28;20240;-78
2022/07/09 14:08:54;;;;;;;1.67;0.85;;;;;29.10;102231.00;;;;10477059;28;20251;-79
2022/07/09 14:13:57;;;;;;;1.50;0.95;;;;;27.20;102220.00;;;;10463576;28;20240;-79
2022/07/09 14:18:59;;;;;;;3.35;1.00;;;;;30.80;102207.00;;;;10480038;28;20904;-79
2022/07/09 14:24:01;;;;;;;4.75;1.17;;;;;32.20;102217.00;;;;10463111;28;20277;-78
2022/07/09 14:29:03;;;;;;;2.80;1.10;;;;;33.40;102225.00;;;;10441249;28;1101375;-79
2022/07/09 14:34:06;;;;;;;5.05;1.13;;;;;34.10;102218.00;;;;10447205;28;20209;-78
2022/07/09 14:39:09;;;;;;;3.50;0.98;;;;;32.30;102223.00;;;;10464052;28;20209;-78
2022/07/09 14:44:12;;;;;;;5.95;1.20;;;;;34.10;102230.00;;;;10446553;28;20204;-78
2022/07/09 14:49:14;;;;;;;2.42;1.13;;;;;32.70;102217.00;;;;10463237;28;20193;-79
2022/07/09 14:54:16;;;;;;;4.88;1.30;;;;;32.80;102223.00;;;;10447635;28;20296;-79
2022/07/09 14:59:21;;;;;;;3.17;1.13;;;;;32.80;102217.00;;;;10462760;28;20217;-78
2022/07/09 15:04:22;;;;;;;3.55;1.27;;;;;33.40;102216.00;;;;10446490;28;20205;-79
2022/07/09 15:09:25;;;;;;;1.95;1.00;;;;;33.20;102214.00;;;;10445111;28;20244;-78
2022/07/09 15:14:27;;;;;;;4.15;0.98;;;;;33.70;102206.00;;;;10445963;28;20206;-77
2022/07/09 15:19:29;;;;;;;2.45;1.17;;;;;33.60;102223.00;;;;10461991;28;20250;-77
2022/07/09 15:24:31;;;;;;;1.35;0.70;;;;;33.60;102209.00;;;;10461105;28;20181;-77
2022/07/09 15:29:33;;;;;;;1.73;0.90;;;;;33.90;102201.00;;;;10461223;28;20201;-77
2022/07/09 15:34:35;;;;;;;3.95;1.17;;;;;32.30;102202.00;;;;10461115;28;20213;-77
2022/07/09 15:39:37;;;;;;;5.65;1.50;;;;;30.70;102207.00;;;;10461035;28;20185;-77
2022/07/09 15:44:39;;;;;;;3.95;1.30;;;;;28.80;102210.00;;;;10462480;28;20189;-77
2022/07/09 15:49:41;;;;;;;4.70;1.50;;;;;26.50;102199.00;;;;10461156;28;20568;-77
2022/07/09 15:54:43;;;;;;;4.72;1.40;;;;;25.80;102201.00;;;;10444143;28;20213;-77
2022/07/09 15:59:45;;;;;;;4.75;1.20;;;;;24.80;102201.00;;;;10477977;28;20221;-77
2022/07/09 16:04:47;;;;;;;5.90;1.50;;;;;24.50;102185.00;;;;10418415;28;20209;-78
2022/07/09 16:09:49;;;;;;;4.93;1.35;;;;;24.10;102184.00;;;;10387131;28;20290;-77
2022/07/09 16:14:51;;;;;;;7.50;2.05;;;;;23.50;102191.00;;;;10442782;28;20213;-77
2022/07/09 16:19:53;;;;;;;3.30;1.38;;;;;23.40;102185.00;;;;10444522;28;20235;-77
2022/07/09 16:24:55;;;;;;;4.00;1.45;;;;;23.00;102190.00;;;;10493390;28;20251;-77
2022/07/09 16:29:57;;;;;;;3.10;1.40;;;;;22.70;102183.00;;;;10444558;28;20205;-77
2022/07/09 16:35:06;;;;;;;4.32;1.70;;;;;22.90;102175.00;;;;10434173;28;20209;-78
2022/07/09 16:40:08;;;;;;;3.95;1.20;;;;;22.70;102183.00;;;;10451582;28;20196;-78
2022/07/09 16:45:10;;;;;;;5.50;1.45;;;;;22.60;102179.00;;;;10450884;28;20298;-77
2022/07/09 16:50:12;;;;;;;4.78;1.67;;;;;22.40;102175.00;;;;10467565;28;20534;-77
2022/07/09 16:55:15;;;;;;;8.52;1.65;;;;;22.40;102177.00;;;;10468203;28;20214;-78
2022/07/09 17:00:17;;;;;;;8.82;2.20;;;;;22.40;102166.00;;;;10483945;28;20205;-78
2022/07/09 17:05:19;;;;;;;6.78;2.08;;;;;22.60;102179.00;;;;10430925;28;20198;-78
2022/07/09 17:10:26;;;;;;;7.88;2.10;;;;;22.80;102169.00;;;;10410057;28;20186;-78
2022/07/09 17:15:29;;;;;;;6.25;2.13;;;;;22.70;102170.00;;;;10409850;28;20213;-78
2022/07/09 17:20:31;;;;;;;4.63;1.75;;;;;22.80;102159.00;;;;10446617;28;20649;-78
2022/07/09 17:25:33;;;;;;;4.35;1.67;;;;;22.70;102167.00;;;;10433932;28;20656;-78
2022/07/09 17:30:35;;;;;;;7.93;2.10;;;;;22.40;102168.00;;;;10458194;28;20293;-78
2022/07/09 17:35:37;;;;;;;5.38;2.13;;;;;22.10;102172.00;;;;10441911;28;20269;-78
2022/07/09 17:40:40;;;;;;;5.90;2.15;;;;;22.20;102172.00;;;;10408190;28;20195;-78
2022/07/09 17:45:42;;;;;;;5.35;2.22;;;;;22.30;102174.00;;;;10441173;28;20213;-78
2022/07/09 17:50:44;;;;;;;6.30;1.83;;;;;22.10;102176.00;;;;10423291;28;20240;-78
2022/07/09 17:55:46;;;;;;;4.22;2.00;;;;;22.50;102179.00;;;;10448990;28;20305;-78
2022/07/09 18:00:48;;;;;;;11.02;1.80;;;;;22.30;102181.00;;;;10464019;28;20680;-78
2022/07/09 18:05:51;;;;;;;6.30;1.90;;;;;21.80;102184.00;;;;10407241;28;20194;-78
2022/07/09 18:10:58;;;;;;;8.52;2.65;;;;;21.30;102191.00;;;;10407341;28;20194;-78
2022/07/09 18:16:00;;;;;;;4.75;1.63;;;;;21.10;102187.00;;;;10410076;28;20193;-78
2022/07/09 18:21:04;;;;;;;7.47;2.13;;;;;20.80;102192.00;;;;10448309;28;20193;-78
2022/07/09 18:26:07;;;;;;;5.60;1.92;;;;;20.90;102202.00;;;;10480611;28;20186;-78
2022/07/09 18:31:09;;;;;;;7.38;1.90;;;;;21.00;102200.00;;;;10443548;28;20293;-78
2022/07/09 18:36:11;;;;;;;5.53;1.90;;;;;21.20;102205.00;;;;10422026;28;20186;-78
2022/07/09 18:41:13;;;;;;;4.10;1.50;;;;;21.10;102197.00;;;;10439138;28;20192;-78
2022/07/09 18:46:15;;;;;;;2.47;1.50;;;;;21.10;102211.00;;;;10405563;28;20240;-77
2022/07/09 18:51:17;;;;;;;5.55;1.60;;;;;20.90;102213.00;;;;10405914;28;20233;-78
2022/07/09 18:56:18;;;;;;;7.70;1.85;;;;;20.70;102221.00;;;;10405032;28;20190;-78
2022/07/09 19:01:20;;;;;;;6.65;1.60;;;;;20.30;102230.00;;;;10456720;28;20213;-78
2022/07/09 19:06:22;;;;;;;2.47;1.45;;;;;19.90;102233.00;;;;10421035;28;20198;-78
2022/07/09 19:11:24;;;;;;;3.70;1.20;;;;;19.50;102231.00;;;;10421568;28;20191;-78
2022/07/09 19:16:26;;;;;;;5.85;1.58;;;;;19.30;102236.00;;;;10405581;28;20198;-77
2022/07/09 19:21:29;;;;;;;1.85;1.35;;;;;19.40;102245.00;;;;10405371;28;20217;-78
2022/07/09 19:26:31;;;;;;;3.67;1.20;;;;;19.40;102245.00;;;;10420811;28;20178;-78
2022/07/09 19:36:56;;;;;;;6.72;1.50;;;;;18.90;102255.00;;;;10404915;28;20853;-78
2022/07/09 19:41:58;;;;;;;2.15;1.27;;;;;18.60;102265.00;;;;10439253;28;20296;-78
2022/07/09 19:47:00;;;;;;;3.92;1.58;;;;;18.40;102266.00;;;;10445184;28;20212;-78
2022/07/09 19:52:03;;;;;;;4.03;1.38;;;;;18.10;102263.00;;;;10445309;28;20229;-78
2022/07/09 19:57:05;;;;;;;4.78;1.65;;;;;17.90;102274.00;;;;10478219;28;20193;-78
2022/07/09 20:02:07;;;;;;;4.38;1.38;;;;;17.70;102288.00;;;;10426036;28;20241;-78
2022/07/09 20:07:09;;;;;;;3.92;1.30;;;;;17.60;102286.00;;;;10428421;28;20224;-78
2022/07/09 20:12:11;;;;;;;6.82;1.65;;;;;17.50;102286.00;;;;10463422;28;20267;-78
2022/07/09 20:17:13;;;;;;;3.22;1.50;;;;;17.40;102287.00;;;;10468908;28;20640;-78
2022/07/09 20:22:18;;;;;;;3.03;1.67;;;;;17.20;102289.00;;;;10452780;28;20186;-78
2022/07/09 20:27:19;;;;;;;2.72;1.27;;;;;17.10;102304.00;;;;10435910;28;20193;-78
2022/07/09 20:32:21;;;;;;;4.43;1.30;;;;;17.00;102310.00;;;;10422108;28;20217;-79
2022/07/09 20:37:24;;;;;;;4.50;1.77;;;;;16.90;102308.00;;;;10444522;28;20190;-80
2022/07/09 20:42:26;;;;;;;5.28;1.33;;;;;16.80;102318.00;;;;10428687;28;20194;-78
2022/07/09 20:47:28;;;;;;;4.27;1.57;;;;;16.70;102312.00;;;;10444615;28;20191;-78
2022/07/09 20:52:31;;;;;;;7.18;2.05;;;;;16.60;102318.00;;;;10432659;28;20771;-78
2022/07/09 20:57:33;;;;;;;6.03;1.73;;;;;16.50;102317.00;;;;10451529;28;20205;-78
2022/07/09 21:02:36;;;;;;;6.63;1.77;;;;;16.40;102329.00;;;;10465510;28;20196;-78
2022/07/09 21:07:38;;;;;;;3.90;2.10;;;;;16.30;102323.00;;;;10451151;28;20194;-77
2022/07/09 21:12:40;;;;;;;3.60;1.80;;;;;16.20;102314.00;;;;10450487;28;20263;-77
2022/07/09 21:23:08;;;;;;;5.23;1.83;;;;;16.00;102321.00;;;;10451960;28;20198;-80
2022/07/09 21:28:10;;;;;;;6.93;2.50;;;;;15.90;102329.00;;;;10483144;28;20198;-78
2022/07/09 21:33:12;;;;;;;2.90;1.67;;;;;15.80;102322.00;;;;10445583;28;20328;-78
2022/07/09 21:38:14;;;;;;;5.40;1.80;;;;;15.70;102321.00;;;;10408745;28;20202;-77
2022/07/09 21:43:16;;;;;;;3.37;1.80;;;;;15.60;102323.00;;;;10428541;28;20304;-77
2022/07/09 21:48:18;;;;;;;3.80;1.53;;;;;15.50;102323.00;;;;10438858;28;20193;-78
2022/07/09 21:53:20;;;;;;;5.33;1.87;;;;;15.40;102334.00;;;;10465315;28;20300;-78
2022/07/09 21:58:22;;;;;;;3.90;1.60;;;;;15.30;102333.00;;;;10448983;28;20692;-78
2022/07/09 22:03:25;;;;;;;4.20;1.80;;;;;15.30;102331.00;;;;10428066;28;20277;-78
2022/07/09 22:08:27;;;;;;;6.30;1.70;;;;;15.20;102336.00;;;;10407773;28;20285;-78
2022/07/09 22:13:29;;;;;;;5.47;2.00;;;;;15.10;102334.00;;;;10424980;28;20294;-78
2022/07/09 22:18:31;;;;;;;4.53;1.77;;;;;15.00;102334.00;;;;10432264;28;20613;-78
2022/07/09 22:23:33;;;;;;;4.13;1.93;;;;;14.90;102334.00;;;;10447981;28;20204;-78
2022/07/09 22:28:35;;;;;;;3.30;1.63;;;;;14.80;102330.00;;;;10431204;28;20201;-78
2022/07/09 22:33:38;;;;;;;7.33;1.90;;;;;14.80;102336.00;;;;10463391;28;20292;-78
2022/07/09 22:38:40;;;;;;;9.47;2.10;;;;;14.70;102326.00;;;;10480189;28;20193;-78
2022/07/09 22:43:42;;;;;;;5.93;1.87;;;;;14.70;102323.00;;;;10447179;28;20220;-78
2022/07/09 22:48:44;;;;;;;4.73;2.07;;;;;14.60;102315.00;;;;10479989;28;20603;-78
2022/07/09 22:53:46;;;;;;;4.90;2.00;;;;;14.50;102320.00;;;;10462939;28;20330;-78
2022/07/09 22:58:48;;;;;;;3.07;2.00;;;;;14.50;102322.00;;;;10446527;28;20258;-78
2022/07/09 23:03:50;;;;;;;6.70;1.80;;;;;14.40;102316.00;;;;10414909;28;20244;-78
2022/07/09 23:08:55;;;;;;;5.77;2.03;;;;;14.30;102320.00;;;;10404668;28;20288;-78
2022/07/09 23:13:59;;;;;;;5.17;2.07;;;;;14.30;102320.00;;;;10437476;28;20245;-78
2022/07/09 23:19:06;;;;;;;7.63;2.20;;;;;14.10;102323.00;;;;10420858;28;20198;-78
2022/07/09 23:24:09;;;;;;;5.07;1.60;;;;;14.00;102321.00;;;;10478067;28;20192;-78
2022/07/09 23:29:11;;;;;;;9.13;2.63;;;;;13.90;102308.00;;;;10461952;28;20268;-78
2022/07/09 23:34:12;;;;;;;6.03;2.70;;;;;13.70;102319.00;;;;10461631;28;20201;-78
2022/07/09 23:39:14;;;;;;;8.00;2.93;;;;;13.60;102307.00;;;;10429477;28;20197;-78
2022/07/09 23:44:16;;;;;;;4.33;2.70;;;;;13.40;102308.00;;;;10444877;28;20652;-78
2022/07/09 23:49:18;;;;;;;3.77;2.40;;;;;13.20;102306.00;;;;10444070;28;20600;-78
2022/07/09 23:54:20;;;;;;;5.30;2.27;;;;;13.10;102305.00;;;;10428483;28;20274;-78
2022/07/09 23:59:22;;;;;;;4.97;2.27;;;;;13.10;102305.00;;;;10428306;28;20221;-78
